createdAt,value
2022-08-20T00:02:45.070Z,17.95
2022-08-20T00:05:57.908Z,18.17
2022-08-20T00:09:06.640Z,18.05
2022-08-20T00:12:14.136Z,18.15
2022-08-20T00:15:22.710Z,17.47
2022-08-20T00:18:30.243Z,16.70
2022-08-20T00:21:40.541Z,17.07
2022-08-20T00:24:48.005Z,16.70
2022-08-20T00:27:55.255Z,16.90
2022-08-20T00:31:03.344Z,17.37
2022-08-20T00:34:21.813Z,17.90
2022-08-20T00:37:30.675Z,18.57
2022-08-20T00:40:41.093Z,19.87
2022-08-20T00:43:50.383Z,20.43
2022-08-20T00:46:57.577Z,19.37
2022-08-20T00:50:06.478Z,18.97
2022-08-20T00:53:16.018Z,18.37
2022-08-20T00:56:22.370Z,17.83
2022-08-20T00:59:33.366Z,18.40
2022-08-20T01:02:39.467Z,18.73
2022-08-20T01:05:48.729Z,20.37
2022-08-20T01:08:58.216Z,19.20
2022-08-20T01:12:06.502Z,20.33
2022-08-20T01:15:17.340Z,20.70
2022-08-20T01:18:27.811Z,23.50
2022-08-20T01:21:35.126Z,21.63
2022-08-20T01:24:44.586Z,23.13
2022-08-20T01:27:56.026Z,21.93
2022-08-20T01:31:03.323Z,23.17
2022-08-20T01:34:14.216Z,22.67
2022-08-20T01:37:20.548Z,22.30
2022-08-20T01:40:42.034Z,22.67
2022-08-20T01:43:58.578Z,22.77
2022-08-20T01:47:17.282Z,21.53
2022-08-20T01:50:29.283Z,23.00
2022-08-20T01:53:39.310Z,22.57
2022-08-20T01:56:57.257Z,20.60
2022-08-20T02:00:14.593Z,21.30
2022-08-20T02:03:27.867Z,20.30
2022-08-20T02:06:37.805Z,19.88
2022-08-20T02:09:44.179Z,19.87
2022-08-20T02:12:51.390Z,19.10
2022-08-20T02:16:03.335Z,19.13
2022-08-20T02:19:13.996Z,18.97
2022-08-20T02:22:23.522Z,19.60
2022-08-20T02:25:35.839Z,18.60
2022-08-20T02:28:41.853Z,20.23
2022-08-20T02:32:23.702Z,19.60
2022-08-20T02:35:18.906Z,19.47
2022-08-20T02:38:25.949Z,20.93
2022-08-20T02:41:32.824Z,20.53
2022-08-20T02:44:39.763Z,20.57
2022-08-20T02:47:49.731Z,19.50
2022-08-20T02:51:04.055Z,21.33
2022-08-20T02:54:10.172Z,20.42
2022-08-20T02:57:20.475Z,21.00
2022-08-20T03:00:26.626Z,21.43
2022-08-20T03:03:36.535Z,21.48
2022-08-20T03:06:42.436Z,21.07
2022-08-20T03:09:49.473Z,19.83
2022-08-20T03:12:55.849Z,20.67
2022-08-20T03:16:06.412Z,20.30
2022-08-20T03:19:15.267Z,19.65
2022-08-20T03:22:22.009Z,22.20
2022-08-20T03:25:29.342Z,21.27
2022-08-20T03:28:36.825Z,20.57
2022-08-20T03:31:42.819Z,21.83
2022-08-20T03:34:52.367Z,21.97
2022-08-20T03:37:59.362Z,21.43
2022-08-20T03:41:07.847Z,20.80
2022-08-20T03:44:13.725Z,21.80
2022-08-20T03:47:20.592Z,19.63
2022-08-20T03:50:32.465Z,20.98
2022-08-20T03:53:39.507Z,20.83
2022-08-20T03:56:45.810Z,19.88
2022-08-20T03:59:58.075Z,20.07
2022-08-20T04:03:08.583Z,20.77
2022-08-20T04:06:18.534Z,21.27
2022-08-20T04:09:24.741Z,24.50
2022-08-20T04:12:31.502Z,24.35
2022-08-20T04:15:39.466Z,21.50
2022-08-20T04:19:01.844Z,21.08
2022-08-20T04:22:13.889Z,19.95
2022-08-20T04:25:22.299Z,19.53
2022-08-20T04:28:31.002Z,22.50
2022-08-20T04:31:37.777Z,22.48
2022-08-20T04:34:44.031Z,21.73
2022-08-20T04:38:03.379Z,20.20
2022-08-20T04:41:09.972Z,21.23
2022-08-20T04:44:30.048Z,18.15
2022-08-20T04:47:36.686Z,17.50
2022-08-20T04:50:47.151Z,19.23
2022-08-20T04:53:56.843Z,18.57
2022-08-20T04:57:04.080Z,18.02
2022-08-20T05:00:14.436Z,18.60
2022-08-20T05:03:21.791Z,18.92
2022-08-20T05:06:30.968Z,19.63
2022-08-20T05:09:44.192Z,18.88
2022-08-20T05:12:56.594Z,18.02
2022-08-20T05:16:05.181Z,18.85
2022-08-20T05:19:14.456Z,18.73
2022-08-20T05:22:56.696Z,19.40
2022-08-20T05:26:11.263Z,19.05
2022-08-20T05:29:18.328Z,17.10
2022-08-20T05:32:24.345Z,17.02
2022-08-20T05:35:31.275Z,15.35
2022-08-20T05:38:39.818Z,14.52
2022-08-20T05:41:51.536Z,14.93
2022-08-20T05:44:57.524Z,15.18
2022-08-20T05:48:08.320Z,16.55
2022-08-20T05:51:15.927Z,16.45
2022-08-20T05:54:24.046Z,16.20
2022-08-20T05:57:33.391Z,14.52
2022-08-20T06:00:40.481Z,15.32
2022-08-20T06:04:03.635Z,16.13
2022-08-20T06:07:11.026Z,14.27
2022-08-20T06:10:17.601Z,14.95
2022-08-20T06:13:28.051Z,14.18
2022-08-20T06:16:34.282Z,13.52
2022-08-20T06:19:44.773Z,14.73
2022-08-20T06:22:50.987Z,13.50
2022-08-20T06:25:57.996Z,12.70
2022-08-20T06:29:08.757Z,13.27
2022-08-20T06:32:15.868Z,14.05
2022-08-20T06:35:21.916Z,12.82
2022-08-20T06:38:28.770Z,14.52
2022-08-20T06:41:36.171Z,13.48
2022-08-20T06:44:51.079Z,14.73
2022-08-20T06:47:59.086Z,13.93
2022-08-20T06:51:07.422Z,15.55
2022-08-20T06:54:13.294Z,14.18
2022-08-20T06:57:20.413Z,13.68
2022-08-20T07:00:29.711Z,14.32
2022-08-20T07:03:37.882Z,15.30
2022-08-20T07:06:43.985Z,15.20
2022-08-20T07:09:51.159Z,15.20
2022-08-20T07:12:57.661Z,14.70
2022-08-20T07:16:08.065Z,15.10
2022-08-20T07:19:14.471Z,14.55
2022-08-20T07:22:21.147Z,14.07
2022-08-20T07:25:27.703Z,13.15
2022-08-20T07:28:34.835Z,12.95
2022-08-20T07:31:59.644Z,12.38
2022-08-20T07:35:10.048Z,10.10
2022-08-20T07:38:18.762Z,9.73
2022-08-20T07:41:25.631Z,10.20
2022-08-20T07:44:32.095Z,10.25
2022-08-20T07:47:42.262Z,10.10
2022-08-20T07:50:50.331Z,9.52
2022-08-20T07:53:58.720Z,9.68
2022-08-20T07:57:06.458Z,9.20
2022-08-20T08:00:15.476Z,9.18
2022-08-20T08:03:39.711Z,9.52
2022-08-20T08:06:51.163Z,9.25
2022-08-20T08:09:58.070Z,9.50
2022-08-20T08:13:12.415Z,9.23
2022-08-20T08:16:20.631Z,9.52
2022-08-20T08:19:34.563Z,9.10
2022-08-20T08:22:43.399Z,9.23
2022-08-20T08:25:51.784Z,9.77
2022-08-20T08:28:58.516Z,9.15
2022-08-20T08:32:09.366Z,8.77
2022-08-20T08:35:18.027Z,9.35
2022-08-20T08:38:25.990Z,8.90
2022-08-20T08:41:35.404Z,9.43
2022-08-20T08:44:44.956Z,9.75
2022-08-20T08:47:51.805Z,9.18
2022-08-20T08:51:04.187Z,8.75
2022-08-20T08:54:11.614Z,9.07
2022-08-20T08:57:18.979Z,9.23
2022-08-20T09:00:29.302Z,9.30
2022-08-20T09:03:40.146Z,9.52
2022-08-20T09:06:52.155Z,9.90
2022-08-20T09:09:59.163Z,11.07
2022-08-20T09:13:07.009Z,11.35
2022-08-20T09:16:14.598Z,11.45
2022-08-20T09:19:20.503Z,12.25
2022-08-20T09:22:31.094Z,11.43
2022-08-20T09:25:37.258Z,12.18
2022-08-20T09:28:44.096Z,13.02
2022-08-20T09:32:07.362Z,13.90
2022-08-20T09:35:16.428Z,13.77
2022-08-20T09:38:25.197Z,12.82
2022-08-20T09:41:33.796Z,13.13
2022-08-20T09:44:40.926Z,9.18
2022-08-20T09:47:56.921Z,7.25
2022-08-20T09:51:04.033Z,7.28
2022-08-20T09:54:13.899Z,8.52
2022-08-20T09:57:20.987Z,8.40
2022-08-20T10:00:28.025Z,9.15
2022-08-20T10:03:34.234Z,8.55
2022-08-20T10:06:48.910Z,7.05
2022-08-20T10:09:57.638Z,7.35
2022-08-20T10:13:04.363Z,8.25
2022-08-20T10:16:10.499Z,6.68
2022-08-20T10:19:17.250Z,7.32
2022-08-20T10:22:23.143Z,6.82
2022-08-20T10:25:33.162Z,7.65
2022-08-20T10:28:39.786Z,7.05
2022-08-20T10:31:46.696Z,8.23
2022-08-20T10:34:52.829Z,8.27
2022-08-20T10:37:59.718Z,7.00
2022-08-20T10:41:09.826Z,7.15
2022-08-20T10:44:17.862Z,7.75
2022-08-20T10:47:25.845Z,7.78
2022-08-20T10:50:32.612Z,7.60
2022-08-20T10:53:39.259Z,6.68
2022-08-20T10:56:49.461Z,6.60
2022-08-20T10:59:58.429Z,6.63
2022-08-20T11:03:07.236Z,6.80
2022-08-20T11:06:13.094Z,5.90
2022-08-20T11:09:19.895Z,6.18
2022-08-20T11:12:29.252Z,6.25
2022-08-20T11:15:38.710Z,6.47
2022-08-20T11:18:47.785Z,6.75
2022-08-20T11:21:54.622Z,7.53
2022-08-20T11:25:00.747Z,8.43
2022-08-20T11:28:13.162Z,7.97
2022-08-20T11:31:19.122Z,9.02
2022-08-20T11:34:26.116Z,9.00
2022-08-20T11:37:32.272Z,7.75
2022-08-20T11:40:39.082Z,8.27
2022-08-20T11:44:10.544Z,9.05
2022-08-20T11:47:24.900Z,9.60
2022-08-20T11:50:31.001Z,9.27
2022-08-20T11:53:38.520Z,9.05
2022-08-20T11:56:46.310Z,9.65
2022-08-20T11:59:58.531Z,8.32
2022-08-20T12:03:09.046Z,7.25
2022-08-20T12:06:17.267Z,8.32
2022-08-20T12:09:24.846Z,8.88
2022-08-20T12:12:31.817Z,9.93
2022-08-20T12:15:40.624Z,9.73
2022-08-20T12:18:47.924Z,10.25
2022-08-20T12:21:53.748Z,9.27
2022-08-20T12:25:00.825Z,11.15
2022-08-20T12:28:08.165Z,10.70
2022-08-20T12:31:17.775Z,10.40
2022-08-20T12:34:23.621Z,11.15
2022-08-20T12:37:33.275Z,9.77
2022-08-20T12:40:39.531Z,10.95
2022-08-20T12:43:46.493Z,10.27
2022-08-20T12:46:55.428Z,10.67
2022-08-20T12:50:04.984Z,10.60
2022-08-20T12:53:11.075Z,12.27
2022-08-20T12:56:17.819Z,11.52
2022-08-20T12:59:26.477Z,11.63
2022-08-20T13:02:36.393Z,11.97
2022-08-20T13:05:42.856Z,11.27
2022-08-20T13:08:50.251Z,10.97
2022-08-20T13:11:56.547Z,12.20
2022-08-20T13:15:03.310Z,11.90
2022-08-20T13:18:12.467Z,13.60
2022-08-20T13:21:23.418Z,13.53
2022-08-20T13:24:30.135Z,14.17
2022-08-20T13:27:39.196Z,14.40
2022-08-20T13:30:45.493Z,17.07
2022-08-20T13:33:55.060Z,17.40
2022-08-20T13:37:01.113Z,17.33
2022-08-20T13:40:09.585Z,16.07
2022-08-20T13:43:15.647Z,12.77
2022-08-20T13:46:23.416Z,12.40
2022-08-20T13:49:34.025Z,10.20
2022-08-20T13:52:42.617Z,10.20
2022-08-20T13:55:49.225Z,8.63
2022-08-20T13:58:55.886Z,9.97
2022-08-20T14:02:07.187Z,9.00
2022-08-20T14:05:19.250Z,8.80
2022-08-20T14:08:26.867Z,8.23
2022-08-20T14:11:33.768Z,9.00
2022-08-20T14:14:39.871Z,9.10
2022-08-20T14:17:53.595Z,8.13
2022-08-20T14:21:03.365Z,8.23
2022-08-20T14:24:11.080Z,9.23
2022-08-20T14:27:18.745Z,9.97
2022-08-20T14:30:28.629Z,9.63
2022-08-20T14:33:36.126Z,10.27
2022-08-20T14:36:45.782Z,11.37
2022-08-20T14:39:57.198Z,11.37
2022-08-20T14:43:04.044Z,11.87
2022-08-20T14:46:10.426Z,11.47
2022-08-20T14:49:20.079Z,11.80
2022-08-20T14:52:28.810Z,10.87
2022-08-20T14:55:37.729Z,11.70
2022-08-20T14:58:43.669Z,9.77
2022-08-20T15:01:50.989Z,10.83
2022-08-20T15:04:57.163Z,11.73
2022-08-20T15:08:07.296Z,11.03
2022-08-20T15:11:13.143Z,11.77
2022-08-20T15:14:19.927Z,12.37
2022-08-20T15:17:30.096Z,12.57
2022-08-20T15:20:38.759Z,11.53
2022-08-20T15:23:47.481Z,10.73
2022-08-20T15:26:54.362Z,10.80
2022-08-20T15:30:00.417Z,11.57
2022-08-20T15:33:08.848Z,11.27
2022-08-20T15:36:14.916Z,10.70
2022-08-20T15:39:24.537Z,9.97
2022-08-20T15:42:30.369Z,9.80
2022-08-20T15:45:38.486Z,9.97
2022-08-20T15:48:46.559Z,9.77
2022-08-20T15:51:53.453Z,10.80
2022-08-20T15:55:03.732Z,11.67
2022-08-20T15:58:15.105Z,11.07
2022-08-20T16:01:35.575Z,11.37
2022-08-20T16:05:14.923Z,11.00
2022-08-20T16:08:42.943Z,11.07
2022-08-20T16:11:58.111Z,10.53
2022-08-20T16:15:07.825Z,10.97
2022-08-20T16:18:23.402Z,9.47
2022-08-20T16:21:33.184Z,9.10
2022-08-20T16:24:39.992Z,8.60
2022-08-20T16:27:57.879Z,8.40
2022-08-20T16:31:09.882Z,8.00
2022-08-20T16:34:34.393Z,8.10
2022-08-20T16:37:48.265Z,8.73
2022-08-20T16:40:58.654Z,9.13
2022-08-20T16:44:16.875Z,10.03
2022-08-20T16:47:31.416Z,11.03
2022-08-20T16:50:42.276Z,11.13
2022-08-20T16:53:48.366Z,11.43
2022-08-20T16:57:03.370Z,10.87
2022-08-20T17:00:16.578Z,11.70
2022-08-20T17:03:33.450Z,12.77
2022-08-20T17:06:49.450Z,11.87
2022-08-20T17:10:11.896Z,11.70
2022-08-20T17:13:28.232Z,11.57
2022-08-20T17:16:41.135Z,11.57
2022-08-20T17:19:55.413Z,12.00
2022-08-20T17:23:16.530Z,13.10
2022-08-20T17:26:26.725Z,11.67
2022-08-20T17:29:36.589Z,12.73
2022-08-20T17:33:00.656Z,11.80
2022-08-20T17:36:13.930Z,11.17
2022-08-20T17:39:22.423Z,11.10
2022-08-20T17:42:30.487Z,12.03
2022-08-20T17:45:43.025Z,11.37
2022-08-20T17:48:54.881Z,11.77
2022-08-20T17:52:03.886Z,11.50
2022-08-20T17:55:13.714Z,11.90
2022-08-20T17:58:21.747Z,11.37
2022-08-20T18:01:29.179Z,11.60
2022-08-20T18:04:37.919Z,11.50
2022-08-20T18:07:54.407Z,12.33
2022-08-20T18:11:06.382Z,12.07
2022-08-20T18:14:32.606Z,12.10
2022-08-20T18:18:09.179Z,11.10
2022-08-20T18:21:36.634Z,11.97
2022-08-20T18:24:48.228Z,12.40
2022-08-20T18:27:58.611Z,13.13
2022-08-20T18:31:07.705Z,14.17
2022-08-20T18:34:16.839Z,14.67
2022-08-20T18:37:31.278Z,15.03
2022-08-20T18:40:39.077Z,15.60
2022-08-20T18:43:46.381Z,15.33
2022-08-20T18:46:58.946Z,17.13
2022-08-20T18:50:17.359Z,17.83
2022-08-20T18:53:34.107Z,17.33
2022-08-20T18:56:44.586Z,16.90
2022-08-20T18:59:57.616Z,17.40
2022-08-20T19:03:13.648Z,17.57
2022-08-20T19:06:32.608Z,17.03
2022-08-20T19:10:00.790Z,17.37
2022-08-20T19:13:56.327Z,16.80
2022-08-20T19:17:06.647Z,16.60
2022-08-20T19:20:17.835Z,14.47
2022-08-20T19:23:26.470Z,15.13
2022-08-20T19:26:44.503Z,15.50
2022-08-20T19:29:56.564Z,15.27
2022-08-20T19:33:06.693Z,15.43
2022-08-20T19:36:18.199Z,14.77
2022-08-20T19:39:31.420Z,17.23
2022-08-20T19:42:46.328Z,18.13
2022-08-20T19:45:56.909Z,18.07
2022-08-20T19:49:16.800Z,18.73
2022-08-20T19:52:36.784Z,19.03
2022-08-20T19:55:43.183Z,21.70
2022-08-20T19:59:03.890Z,21.90
2022-08-20T20:02:20.674Z,23.57
2022-08-20T20:05:28.462Z,23.07
2022-08-20T20:08:44.164Z,23.73
2022-08-20T20:11:56.313Z,23.73
2022-08-20T20:15:08.999Z,23.37
2022-08-20T20:18:16.986Z,22.80
2022-08-20T20:21:26.484Z,22.37
2022-08-20T20:24:43.715Z,22.10
2022-08-20T20:27:52.656Z,20.20
2022-08-20T20:31:09.457Z,16.47
2022-08-20T20:34:18.497Z,18.93
2022-08-20T20:37:49.632Z,17.27
2022-08-20T20:40:59.225Z,17.50
2022-08-20T20:44:09.740Z,14.90
2022-08-20T20:47:26.829Z,17.10
2022-08-20T20:50:40.322Z,16.87
2022-08-20T20:53:54.836Z,15.87
2022-08-20T20:57:06.348Z,16.70
2022-08-20T21:00:16.818Z,15.57
2022-08-20T21:03:26.469Z,15.37
2022-08-20T21:06:32.869Z,17.93
2022-08-20T21:09:42.220Z,17.27
2022-08-20T21:12:52.394Z,18.87
2022-08-20T21:16:00.196Z,18.83
2022-08-20T21:19:12.469Z,17.47
2022-08-20T21:22:20.058Z,17.07
2022-08-20T21:25:26.343Z,17.87
2022-08-20T21:28:34.330Z,17.03
2022-08-20T21:31:44.954Z,16.97
2022-08-20T21:34:56.096Z,17.23
2022-08-20T21:38:03.290Z,17.83
2022-08-20T21:41:10.045Z,17.63
2022-08-20T21:44:24.857Z,18.23
2022-08-20T21:47:32.279Z,17.63
2022-08-20T21:50:40.982Z,17.60
2022-08-20T21:53:47.727Z,17.60
2022-08-20T21:56:55.858Z,16.43
2022-08-20T22:00:04.561Z,16.77
2022-08-20T22:03:10.804Z,13.37
2022-08-20T22:06:23.783Z,13.43
2022-08-20T22:09:30.196Z,11.13
2022-08-20T22:12:37.214Z,11.90
2022-08-20T22:15:43.265Z,12.53
2022-08-20T22:18:51.440Z,13.13
2022-08-20T22:22:00.693Z,11.67
2022-08-20T22:25:12.100Z,13.17
2022-08-20T22:28:18.904Z,11.40
2022-08-20T22:31:29.061Z,11.97
2022-08-20T22:34:37.658Z,12.97
2022-08-20T22:37:47.662Z,13.40
2022-08-20T22:40:54.329Z,12.43
2022-08-20T22:44:01.070Z,13.43
2022-08-20T22:47:10.497Z,12.60
2022-08-20T22:50:18.663Z,13.50
2022-08-20T22:53:32.663Z,13.53
2022-08-20T22:56:39.598Z,13.77
2022-08-20T22:59:52.991Z,12.60
2022-08-20T23:03:03.979Z,14.17
2022-08-20T23:06:12.325Z,13.57
2022-08-20T23:09:22.452Z,14.37
2022-08-20T23:12:28.366Z,17.33
2022-08-20T23:15:45.249Z,17.13
2022-08-20T23:18:51.464Z,17.37
2022-08-20T23:21:58.271Z,16.77
2022-08-20T23:25:07.878Z,16.27
2022-08-20T23:28:14.709Z,16.63
2022-08-20T23:31:21.730Z,15.70
2022-08-20T23:34:29.728Z,16.83
2022-08-20T23:37:45.111Z,18.00
2022-08-20T23:40:54.677Z,18.50
2022-08-20T23:44:00.609Z,19.67
2022-08-20T23:47:09.727Z,18.80
2022-08-20T23:50:20.446Z,19.63
2022-08-20T23:53:27.379Z,18.97
2022-08-20T23:56:36.943Z,19.23
2022-08-20T23:59:44.039Z,20.23
